sensor_id;sensor_type;location;lat;lon;timestamp;P1;durP1;ratioP1;P2;durP2;ratioP2
74375;SDS011;62812;55.188;61.302;2023-05-17T00:02:00;19.10;;;8.38;;
74375;SDS011;62812;55.188;61.302;2023-05-17T00:04:27;30.02;;;9.35;;
74375;SDS011;62812;55.188;61.302;2023-05-17T00:06:54;31.02;;;10.55;;
74375;SDS011;62812;55.188;61.302;2023-05-17T00:09:23;31.27;;;11.13;;
74375;SDS011;62812;55.188;61.302;2023-05-17T00:11:50;32.17;;;11.95;;
74375;SDS011;62812;55.188;61.302;2023-05-17T00:14:17;31.52;;;11.77;;
74375;SDS011;62812;55.188;61.302;2023-05-17T00:19:52;33.97;;;10.55;;
74375;SDS011;62812;55.188;61.302;2023-05-17T00:22:20;31.13;;;11.60;;
74375;SDS011;62812;55.188;61.302;2023-05-17T00:24:50;27.23;;;10.38;;
74375;SDS011;62812;55.188;61.302;2023-05-17T00:27:17;28.15;;;11.90;;
74375;SDS011;62812;55.188;61.302;2023-05-17T00:32:42;30.25;;;11.55;;
74375;SDS011;62812;55.188;61.302;2023-05-17T00:35:11;36.47;;;11.95;;
74375;SDS011;62812;55.188;61.302;2023-05-17T00:37:38;28.83;;;10.70;;
74375;SDS011;62812;55.188;61.302;2023-05-17T00:40:07;31.20;;;11.13;;
74375;SDS011;62812;55.188;61.302;2023-05-17T00:42:37;29.27;;;11.23;;
74375;SDS011;62812;55.188;61.302;2023-05-17T00:45:04;26.73;;;11.38;;
74375;SDS011;62812;55.188;61.302;2023-05-17T00:47:32;27.05;;;10.90;;
74375;SDS011;62812;55.188;61.302;2023-05-17T00:49:59;30.15;;;10.98;;
74375;SDS011;62812;55.188;61.302;2023-05-17T00:52:27;27.98;;;9.93;;
74375;SDS011;62812;55.188;61.302;2023-05-17T00:54:54;24.00;;;8.90;;
74375;SDS011;62812;55.188;61.302;2023-05-17T00:57:23;26.45;;;9.15;;
74375;SDS011;62812;55.188;61.302;2023-05-17T00:59:50;24.92;;;8.68;;
74375;SDS011;62812;55.188;61.302;2023-05-17T01:02:18;16.67;;;5.70;;
74375;SDS011;62812;55.188;61.302;2023-05-17T01:04:45;14.60;;;6.00;;
74375;SDS011;62812;55.188;61.302;2023-05-17T01:07:13;17.08;;;5.57;;
74375;SDS011;62812;55.188;61.302;2023-05-17T01:09:43;15.90;;;5.28;;
74375;SDS011;62812;55.188;61.302;2023-05-17T01:12:14;17.63;;;5.93;;
74375;SDS011;62812;55.188;61.302;2023-05-17T01:14:53;17.50;;;4.97;;
74375;SDS011;62812;55.188;61.302;2023-05-17T01:17:31;13.73;;;4.88;;
74375;SDS011;62812;55.188;61.302;2023-05-17T01:20:04;14.23;;;5.28;;
74375;SDS011;62812;55.188;61.302;2023-05-17T01:22:51;15.68;;;5.60;;
74375;SDS011;62812;55.188;61.302;2023-05-17T01:25:35;18.15;;;5.90;;
74375;SDS011;62812;55.188;61.302;2023-05-17T01:28:16;19.00;;;5.45;;
74375;SDS011;62812;55.188;61.302;2023-05-17T01:30:45;13.38;;;4.70;;
74375;SDS011;62812;55.188;61.302;2023-05-17T01:33:15;14.13;;;4.70;;
74375;SDS011;62812;55.188;61.302;2023-05-17T01:35:43;16.25;;;5.75;;
74375;SDS011;62812;55.188;61.302;2023-05-17T01:38:10;19.45;;;5.05;;
74375;SDS011;62812;55.188;61.302;2023-05-17T01:40:38;14.52;;;4.50;;
74375;SDS011;62812;55.188;61.302;2023-05-17T01:43:13;12.10;;;4.57;;
74375;SDS011;62812;55.188;61.302;2023-05-17T01:45:52;13.15;;;4.38;;
74375;SDS011;62812;55.188;61.302;2023-05-17T01:48:27;13.30;;;4.80;;
74375;SDS011;62812;55.188;61.302;2023-05-17T01:51:02;13.20;;;4.63;;
74375;SDS011;62812;55.188;61.302;2023-05-17T01:56:06;12.07;;;4.53;;
74375;SDS011;62812;55.188;61.302;2023-05-17T01:58:45;8.75;;;3.67;;
74375;SDS011;62812;55.188;61.302;2023-05-17T02:01:13;10.43;;;3.55;;
74375;SDS011;62812;55.188;61.302;2023-05-17T02:03:42;8.65;;;3.25;;
74375;SDS011;62812;55.188;61.302;2023-05-17T02:06:09;9.30;;;3.03;;
74375;SDS011;62812;55.188;61.302;2023-05-17T02:08:36;10.32;;;3.20;;
74375;SDS011;62812;55.188;61.302;2023-05-17T02:11:05;10.25;;;3.25;;
74375;SDS011;62812;55.188;61.302;2023-05-17T02:13:32;9.10;;;3.17;;
74375;SDS011;62812;55.188;61.302;2023-05-17T02:16:00;7.82;;;3.08;;
74375;SDS011;62812;55.188;61.302;2023-05-17T02:18:28;12.30;;;3.63;;
74375;SDS011;62812;55.188;61.302;2023-05-17T02:20:55;8.38;;;3.28;;
74375;SDS011;62812;55.188;61.302;2023-05-17T02:23:21;9.52;;;3.22;;
74375;SDS011;62812;55.188;61.302;2023-05-17T02:25:53;10.32;;;3.80;;
74375;SDS011;62812;55.188;61.302;2023-05-17T02:28:20;10.35;;;3.40;;
74375;SDS011;62812;55.188;61.302;2023-05-17T02:30:47;14.45;;;3.63;;
74375;SDS011;62812;55.188;61.302;2023-05-17T02:33:17;14.45;;;4.03;;
74375;SDS011;62812;55.188;61.302;2023-05-17T02:35:44;11.50;;;4.00;;
74375;SDS011;62812;55.188;61.302;2023-05-17T02:38:12;13.95;;;4.72;;
74375;SDS011;62812;55.188;61.302;2023-05-17T02:40:42;14.45;;;5.80;;
74375;SDS011;62812;55.188;61.302;2023-05-17T02:43:09;11.63;;;4.40;;
74375;SDS011;62812;55.188;61.302;2023-05-17T02:45:37;10.00;;;4.10;;
74375;SDS011;62812;55.188;61.302;2023-05-17T02:48:05;13.50;;;4.57;;
74375;SDS011;62812;55.188;61.302;2023-05-17T02:50:34;15.00;;;4.30;;
74375;SDS011;62812;55.188;61.302;2023-05-17T02:53:01;12.35;;;3.72;;
74375;SDS011;62812;55.188;61.302;2023-05-17T02:55:28;12.45;;;4.32;;
74375;SDS011;62812;55.188;61.302;2023-05-17T02:57:55;13.15;;;4.40;;
74375;SDS011;62812;55.188;61.302;2023-05-17T03:00:24;11.88;;;4.05;;
74375;SDS011;62812;55.188;61.302;2023-05-17T03:02:52;15.05;;;3.90;;
74375;SDS011;62812;55.188;61.302;2023-05-17T03:05:24;15.55;;;4.50;;
74375;SDS011;62812;55.188;61.302;2023-05-17T03:07:53;13.38;;;4.25;;
74375;SDS011;62812;55.188;61.302;2023-05-17T03:10:20;14.95;;;5.20;;
74375;SDS011;62812;55.188;61.302;2023-05-17T03:12:49;12.80;;;4.30;;
74375;SDS011;62812;55.188;61.302;2023-05-17T03:15:16;12.05;;;4.68;;
74375;SDS011;62812;55.188;61.302;2023-05-17T03:17:43;14.02;;;5.25;;
74375;SDS011;62812;55.188;61.302;2023-05-17T03:20:10;19.02;;;5.40;;
74375;SDS011;62812;55.188;61.302;2023-05-17T03:22:38;13.55;;;5.78;;
74375;SDS011;62812;55.188;61.302;2023-05-17T03:25:12;15.35;;;4.18;;
74375;SDS011;62812;55.188;61.302;2023-05-17T03:27:38;16.05;;;5.82;;
74375;SDS011;62812;55.188;61.302;2023-05-17T03:30:10;13.13;;;5.18;;
74375;SDS011;62812;55.188;61.302;2023-05-17T03:32:38;16.83;;;6.40;;
74375;SDS011;62812;55.188;61.302;2023-05-17T03:35:05;12.02;;;5.10;;
74375;SDS011;62812;55.188;61.302;2023-05-17T03:37:34;13.70;;;5.07;;
74375;SDS011;62812;55.188;61.302;2023-05-17T03:40:03;14.48;;;6.03;;
74375;SDS011;62812;55.188;61.302;2023-05-17T03:42:34;17.40;;;6.97;;
74375;SDS011;62812;55.188;61.302;2023-05-17T03:45:03;17.30;;;6.60;;
74375;SDS011;62812;55.188;61.302;2023-05-17T03:47:31;14.73;;;6.22;;
74375;SDS011;62812;55.188;61.302;2023-05-17T03:49:59;15.55;;;5.10;;
74375;SDS011;62812;55.188;61.302;2023-05-17T03:52:29;15.85;;;5.47;;
74375;SDS011;62812;55.188;61.302;2023-05-17T03:54:58;22.77;;;7.03;;
74375;SDS011;62812;55.188;61.302;2023-05-17T03:57:26;17.33;;;6.50;;
74375;SDS011;62812;55.188;61.302;2023-05-17T03:59:55;16.40;;;6.35;;
74375;SDS011;62812;55.188;61.302;2023-05-17T04:02:22;15.18;;;6.13;;
74375;SDS011;62812;55.188;61.302;2023-05-17T04:04:55;17.27;;;6.15;;
74375;SDS011;62812;55.188;61.302;2023-05-17T04:07:32;18.85;;;7.15;;
74375;SDS011;62812;55.188;61.302;2023-05-17T04:09:59;19.23;;;6.65;;
74375;SDS011;62812;55.188;61.302;2023-05-17T04:12:30;16.98;;;7.22;;
74375;SDS011;62812;55.188;61.302;2023-05-17T04:14:58;16.40;;;7.25;;
74375;SDS011;62812;55.188;61.302;2023-05-17T04:17:28;18.75;;;7.25;;
74375;SDS011;62812;55.188;61.302;2023-05-17T04:19:57;19.67;;;6.65;;
74375;SDS011;62812;55.188;61.302;2023-05-17T04:22:24;14.73;;;5.75;;
74375;SDS011;62812;55.188;61.302;2023-05-17T04:24:51;13.05;;;4.30;;
74375;SDS011;62812;55.188;61.302;2023-05-17T04:27:20;15.55;;;5.47;;
74375;SDS011;62812;55.188;61.302;2023-05-17T04:29:48;13.48;;;5.05;;
74375;SDS011;62812;55.188;61.302;2023-05-17T04:32:19;13.82;;;5.22;;
74375;SDS011;62812;55.188;61.302;2023-05-17T04:34:46;11.38;;;4.55;;
74375;SDS011;62812;55.188;61.302;2023-05-17T04:37:14;22.15;;;5.65;;
74375;SDS011;62812;55.188;61.302;2023-05-17T04:39:44;16.63;;;6.00;;
74375;SDS011;62812;55.188;61.302;2023-05-17T04:42:12;13.48;;;5.60;;
74375;SDS011;62812;55.188;61.302;2023-05-17T04:44:40;17.48;;;6.45;;
74375;SDS011;62812;55.188;61.302;2023-05-17T04:47:09;13.93;;;5.32;;
74375;SDS011;62812;55.188;61.302;2023-05-17T04:49:44;16.58;;;5.25;;
74375;SDS011;62812;55.188;61.302;2023-05-17T04:52:11;11.88;;;4.60;;
74375;SDS011;62812;55.188;61.302;2023-05-17T04:54:39;10.35;;;3.30;;
74375;SDS011;62812;55.188;61.302;2023-05-17T04:57:06;15.02;;;4.30;;
74375;SDS011;62812;55.188;61.302;2023-05-17T04:59:34;14.80;;;4.63;;
74375;SDS011;62812;55.188;61.302;2023-05-17T05:05:04;11.60;;;3.95;;
74375;SDS011;62812;55.188;61.302;2023-05-17T05:07:32;13.55;;;3.60;;
74375;SDS011;62812;55.188;61.302;2023-05-17T05:09:59;12.45;;;3.55;;
74375;SDS011;62812;55.188;61.302;2023-05-17T05:12:26;18.15;;;4.25;;
74375;SDS011;62812;55.188;61.302;2023-05-17T05:14:53;13.25;;;3.65;;
74375;SDS011;62812;55.188;61.302;2023-05-17T05:17:21;20.00;;;3.80;;
74375;SDS011;62812;55.188;61.302;2023-05-17T05:19:48;9.27;;;3.70;;
74375;SDS011;62812;55.188;61.302;2023-05-17T05:22:24;6.85;;;2.55;;
74375;SDS011;62812;55.188;61.302;2023-05-17T05:24:51;9.68;;;3.70;;
74375;SDS011;62812;55.188;61.302;2023-05-17T05:27:19;7.88;;;2.97;;
74375;SDS011;62812;55.188;61.302;2023-05-17T05:29:46;8.50;;;3.00;;
74375;SDS011;62812;55.188;61.302;2023-05-17T05:32:14;8.88;;;3.65;;
74375;SDS011;62812;55.188;61.302;2023-05-17T05:34:43;9.93;;;3.40;;
74375;SDS011;62812;55.188;61.302;2023-05-17T05:37:12;9.00;;;2.35;;
74375;SDS011;62812;55.188;61.302;2023-05-17T05:39:42;12.32;;;2.95;;
74375;SDS011;62812;55.188;61.302;2023-05-17T05:42:09;9.02;;;3.00;;
74375;SDS011;62812;55.188;61.302;2023-05-17T05:44:46;12.32;;;3.30;;
74375;SDS011;62812;55.188;61.302;2023-05-17T05:47:13;9.00;;;2.30;;
74375;SDS011;62812;55.188;61.302;2023-05-17T05:49:41;6.90;;;1.85;;
74375;SDS011;62812;55.188;61.302;2023-05-17T05:52:08;9.95;;;1.80;;
74375;SDS011;62812;55.188;61.302;2023-05-17T05:54:35;7.90;;;2.25;;
74375;SDS011;62812;55.188;61.302;2023-05-17T05:57:04;11.52;;;2.00;;
74375;SDS011;62812;55.188;61.302;2023-05-17T05:59:31;5.82;;;1.75;;
74375;SDS011;62812;55.188;61.302;2023-05-17T06:01:59;7.35;;;1.60;;
74375;SDS011;62812;55.188;61.302;2023-05-17T06:04:27;8.10;;;2.00;;
74375;SDS011;62812;55.188;61.302;2023-05-17T06:06:58;6.22;;;1.75;;
74375;SDS011;62812;55.188;61.302;2023-05-17T06:09:27;8.05;;;1.90;;
74375;SDS011;62812;55.188;61.302;2023-05-17T06:11:55;10.55;;;2.15;;
74375;SDS011;62812;55.188;61.302;2023-05-17T06:14:24;9.48;;;1.85;;
74375;SDS011;62812;55.188;61.302;2023-05-17T06:16:51;12.60;;;2.28;;
74375;SDS011;62812;55.188;61.302;2023-05-17T06:19:20;10.18;;;2.20;;
74375;SDS011;62812;55.188;61.302;2023-05-17T06:21:49;14.73;;;2.58;;
74375;SDS011;62812;55.188;61.302;2023-05-17T06:24:17;5.35;;;1.80;;
74375;SDS011;62812;55.188;61.302;2023-05-17T06:26:44;6.43;;;1.65;;
74375;SDS011;62812;55.188;61.302;2023-05-17T06:29:12;7.20;;;1.90;;
74375;SDS011;62812;55.188;61.302;2023-05-17T06:31:50;7.55;;;2.03;;
74375;SDS011;62812;55.188;61.302;2023-05-17T06:34:20;7.32;;;2.10;;
74375;SDS011;62812;55.188;61.302;2023-05-17T06:36:50;7.32;;;1.92;;
74375;SDS011;62812;55.188;61.302;2023-05-17T06:39:17;8.30;;;2.00;;
74375;SDS011;62812;55.188;61.302;2023-05-17T06:41:44;7.72;;;2.08;;
74375;SDS011;62812;55.188;61.302;2023-05-17T06:44:14;7.95;;;2.10;;
74375;SDS011;62812;55.188;61.302;2023-05-17T06:49:12;7.13;;;1.70;;
74375;SDS011;62812;55.188;61.302;2023-05-17T06:54:08;10.20;;;2.13;;
74375;SDS011;62812;55.188;61.302;2023-05-17T06:56:37;10.00;;;1.98;;
74375;SDS011;62812;55.188;61.302;2023-05-17T06:59:05;8.60;;;1.98;;
74375;SDS011;62812;55.188;61.302;2023-05-17T07:01:33;8.50;;;2.17;;
74375;SDS011;62812;55.188;61.302;2023-05-17T07:04:00;4.75;;;1.73;;
74375;SDS011;62812;55.188;61.302;2023-05-17T07:06:31;7.70;;;2.03;;
74375;SDS011;62812;55.188;61.302;2023-05-17T07:08:58;6.75;;;2.17;;
74375;SDS011;62812;55.188;61.302;2023-05-17T07:11:27;5.65;;;1.90;;
74375;SDS011;62812;55.188;61.302;2023-05-17T07:16:23;6.90;;;2.05;;
74375;SDS011;62812;55.188;61.302;2023-05-17T07:18:52;9.15;;;2.25;;
74375;SDS011;62812;55.188;61.302;2023-05-17T07:21:20;6.60;;;1.88;;
74375;SDS011;62812;55.188;61.302;2023-05-17T07:23:50;8.95;;;2.40;;
74375;SDS011;62812;55.188;61.302;2023-05-17T07:26:19;9.93;;;2.38;;
74375;SDS011;62812;55.188;61.302;2023-05-17T07:28:48;5.32;;;2.10;;
74375;SDS011;62812;55.188;61.302;2023-05-17T07:31:16;5.57;;;2.10;;
74375;SDS011;62812;55.188;61.302;2023-05-17T07:33:45;5.40;;;2.15;;
74375;SDS011;62812;55.188;61.302;2023-05-17T07:36:13;7.60;;;2.03;;
74375;SDS011;62812;55.188;61.302;2023-05-17T07:38:48;10.38;;;2.30;;
74375;SDS011;62812;55.188;61.302;2023-05-17T07:41:19;9.43;;;2.17;;
74375;SDS011;62812;55.188;61.302;2023-05-17T07:46:21;7.68;;;1.65;;
74375;SDS011;62812;55.188;61.302;2023-05-17T07:48:49;5.95;;;1.85;;
74375;SDS011;62812;55.188;61.302;2023-05-17T07:51:16;6.20;;;1.73;;
74375;SDS011;62812;55.188;61.302;2023-05-17T07:56:49;13.23;;;2.92;;
74375;SDS011;62812;55.188;61.302;2023-05-17T07:59:18;11.20;;;2.75;;
74375;SDS011;62812;55.188;61.302;2023-05-17T08:01:45;5.60;;;2.15;;
74375;SDS011;62812;55.188;61.302;2023-05-17T08:04:13;7.72;;;2.13;;
74375;SDS011;62812;55.188;61.302;2023-05-17T08:06:42;10.30;;;2.08;;
74375;SDS011;62812;55.188;61.302;2023-05-17T08:09:13;13.05;;;2.13;;
74375;SDS011;62812;55.188;61.302;2023-05-17T08:11:41;5.18;;;2.05;;
74375;SDS011;62812;55.188;61.302;2023-05-17T08:14:15;10.25;;;2.50;;
74375;SDS011;62812;55.188;61.302;2023-05-17T08:16:44;13.65;;;2.50;;
74375;SDS011;62812;55.188;61.302;2023-05-17T08:19:13;27.77;;;2.92;;
74375;SDS011;62812;55.188;61.302;2023-05-17T08:21:43;8.20;;;2.00;;
74375;SDS011;62812;55.188;61.302;2023-05-17T08:26:43;7.55;;;1.58;;
74375;SDS011;62812;55.188;61.302;2023-05-17T08:32:03;9.57;;;2.00;;
74375;SDS011;62812;55.188;61.302;2023-05-17T08:34:33;7.47;;;2.25;;
74375;SDS011;62812;55.188;61.302;2023-05-17T08:39:32;13.25;;;2.15;;
74375;SDS011;62812;55.188;61.302;2023-05-17T08:41:59;7.15;;;2.10;;
74375;SDS011;62812;55.188;61.302;2023-05-17T08:44:29;6.88;;;1.92;;
74375;SDS011;62812;55.188;61.302;2023-05-17T08:47:02;5.78;;;1.67;;
74375;SDS011;62812;55.188;61.302;2023-05-17T08:49:29;9.88;;;2.20;;
74375;SDS011;62812;55.188;61.302;2023-05-17T08:52:00;10.80;;;2.42;;
74375;SDS011;62812;55.188;61.302;2023-05-17T08:54:37;10.70;;;2.38;;
74375;SDS011;62812;55.188;61.302;2023-05-17T08:57:04;6.80;;;2.10;;
74375;SDS011;62812;55.188;61.302;2023-05-17T08:59:32;6.95;;;2.03;;
74375;SDS011;62812;55.188;61.302;2023-05-17T09:05:40;10.45;;;2.45;;
74375;SDS011;62812;55.188;61.302;2023-05-17T09:08:10;7.72;;;2.35;;
74375;SDS011;62812;55.188;61.302;2023-05-17T09:10:41;7.18;;;2.28;;
74375;SDS011;62812;55.188;61.302;2023-05-17T09:13:10;11.27;;;2.47;;
74375;SDS011;62812;55.188;61.302;2023-05-17T09:15:43;11.68;;;2.42;;
74375;SDS011;62812;55.188;61.302;2023-05-17T09:18:16;8.50;;;2.65;;
74375;SDS011;62812;55.188;61.302;2023-05-17T09:21:00;8.60;;;2.53;;
74375;SDS011;62812;55.188;61.302;2023-05-17T09:23:32;10.45;;;2.72;;
74375;SDS011;62812;55.188;61.302;2023-05-17T09:26:06;9.57;;;2.70;;
74375;SDS011;62812;55.188;61.302;2023-05-17T09:28:38;10.80;;;3.13;;
74375;SDS011;62812;55.188;61.302;2023-05-17T09:31:07;12.27;;;3.63;;
74375;SDS011;62812;55.188;61.302;2023-05-17T09:33:42;9.82;;;2.83;;
74375;SDS011;62812;55.188;61.302;2023-05-17T09:36:19;11.52;;;3.00;;
74375;SDS011;62812;55.188;61.302;2023-05-17T09:38:56;13.50;;;3.05;;
74375;SDS011;62812;55.188;61.302;2023-05-17T09:41:48;11.07;;;3.83;;
74375;SDS011;62812;55.188;61.302;2023-05-17T09:44:23;9.52;;;3.65;;
74375;SDS011;62812;55.188;61.302;2023-05-17T09:49:25;12.75;;;5.25;;
74375;SDS011;62812;55.188;61.302;2023-05-17T09:51:58;9.88;;;4.70;;
74375;SDS011;62812;55.188;61.302;2023-05-17T09:54:36;10.20;;;4.32;;
74375;SDS011;62812;55.188;61.302;2023-05-17T09:57:14;12.27;;;4.82;;
74375;SDS011;62812;55.188;61.302;2023-05-17T09:59:45;12.18;;;4.40;;
74375;SDS011;62812;55.188;61.302;2023-05-17T10:02:25;11.60;;;3.97;;
74375;SDS011;62812;55.188;61.302;2023-05-17T10:04:54;14.90;;;5.70;;
74375;SDS011;62812;55.188;61.302;2023-05-17T10:07:24;11.15;;;5.00;;
74375;SDS011;62812;55.188;61.302;2023-05-17T10:12:24;17.80;;;6.82;;
74375;SDS011;62812;55.188;61.302;2023-05-17T10:14:55;11.80;;;5.82;;
74375;SDS011;62812;55.188;61.302;2023-05-17T10:17:25;12.45;;;5.90;;
74375;SDS011;62812;55.188;61.302;2023-05-17T10:19:56;14.07;;;5.95;;
74375;SDS011;62812;55.188;61.302;2023-05-17T10:22:27;16.23;;;5.95;;
74375;SDS011;62812;55.188;61.302;2023-05-17T10:24:54;14.00;;;6.32;;
74375;SDS011;62812;55.188;61.302;2023-05-17T10:27:29;13.88;;;8.55;;
74375;SDS011;62812;55.188;61.302;2023-05-17T10:30:03;13.70;;;8.27;;
74375;SDS011;62812;55.188;61.302;2023-05-17T10:32:32;16.70;;;6.57;;
74375;SDS011;62812;55.188;61.302;2023-05-17T10:34:59;13.18;;;6.40;;
74375;SDS011;62812;55.188;61.302;2023-05-17T10:37:35;10.95;;;5.45;;
74375;SDS011;62812;55.188;61.302;2023-05-17T10:40:02;12.45;;;5.68;;
74375;SDS011;62812;55.188;61.302;2023-05-17T10:42:36;13.18;;;6.00;;
74375;SDS011;62812;55.188;61.302;2023-05-17T10:45:06;12.65;;;5.82;;
74375;SDS011;62812;55.188;61.302;2023-05-17T10:47:38;14.05;;;6.00;;
74375;SDS011;62812;55.188;61.302;2023-05-17T10:50:10;10.88;;;5.45;;
74375;SDS011;62812;55.188;61.302;2023-05-17T10:52:38;15.23;;;5.65;;
74375;SDS011;62812;55.188;61.302;2023-05-17T10:55:17;15.82;;;6.20;;
74375;SDS011;62812;55.188;61.302;2023-05-17T10:57:56;14.18;;;5.88;;
74375;SDS011;62812;55.188;61.302;2023-05-17T11:00:39;12.70;;;5.43;;
74375;SDS011;62812;55.188;61.302;2023-05-17T11:03:12;13.48;;;5.57;;
74375;SDS011;62812;55.188;61.302;2023-05-17T11:05:43;14.50;;;6.38;;
74375;SDS011;62812;55.188;61.302;2023-05-17T11:08:34;9.05;;;5.40;;
74375;SDS011;62812;55.188;61.302;2023-05-17T11:11:08;12.77;;;6.13;;
74375;SDS011;62812;55.188;61.302;2023-05-17T11:13:49;13.95;;;5.70;;
74375;SDS011;62812;55.188;61.302;2023-05-17T11:16:19;12.55;;;5.38;;
74375;SDS011;62812;55.188;61.302;2023-05-17T11:18:49;10.60;;;4.80;;
74375;SDS011;62812;55.188;61.302;2023-05-17T11:21:17;12.98;;;6.63;;
74375;SDS011;62812;55.188;61.302;2023-05-17T11:23:48;12.23;;;6.72;;
74375;SDS011;62812;55.188;61.302;2023-05-17T11:26:21;12.88;;;5.82;;
74375;SDS011;62812;55.188;61.302;2023-05-17T11:29:00;11.95;;;6.05;;
74375;SDS011;62812;55.188;61.302;2023-05-17T11:31:28;13.13;;;6.10;;
74375;SDS011;62812;55.188;61.302;2023-05-17T11:33:57;13.23;;;5.40;;
74375;SDS011;62812;55.188;61.302;2023-05-17T11:36:25;21.70;;;5.60;;
74375;SDS011;62812;55.188;61.302;2023-05-17T11:41:38;12.40;;;4.95;;
74375;SDS011;62812;55.188;61.302;2023-05-17T11:44:27;12.80;;;5.68;;
74375;SDS011;62812;55.188;61.302;2023-05-17T11:47:00;13.63;;;6.32;;
74375;SDS011;62812;55.188;61.302;2023-05-17T11:49:30;10.55;;;4.93;;
74375;SDS011;62812;55.188;61.302;2023-05-17T11:51:59;14.43;;;6.35;;
74375;SDS011;62812;55.188;61.302;2023-05-17T11:54:28;13.65;;;5.85;;
74375;SDS011;62812;55.188;61.302;2023-05-17T11:57:06;11.02;;;4.93;;
74375;SDS011;62812;55.188;61.302;2023-05-17T11:59:39;9.00;;;4.10;;
74375;SDS011;62812;55.188;61.302;2023-05-17T12:04:56;8.40;;;4.32;;
74375;SDS011;62812;55.188;61.302;2023-05-17T12:07:33;13.27;;;4.70;;
74375;SDS011;62812;55.188;61.302;2023-05-17T12:10:08;14.00;;;4.45;;
74375;SDS011;62812;55.188;61.302;2023-05-17T12:12:41;10.07;;;4.43;;
74375;SDS011;62812;55.188;61.302;2023-05-17T12:15:11;11.45;;;4.32;;
74375;SDS011;62812;55.188;61.302;2023-05-17T12:17:44;7.28;;;3.35;;
74375;SDS011;62812;55.188;61.302;2023-05-17T12:20:15;8.75;;;3.92;;
74375;SDS011;62812;55.188;61.302;2023-05-17T12:22:52;11.82;;;3.65;;
74375;SDS011;62812;55.188;61.302;2023-05-17T12:25:20;10.48;;;3.80;;
74375;SDS011;62812;55.188;61.302;2023-05-17T12:27:50;9.00;;;4.10;;
74375;SDS011;62812;55.188;61.302;2023-05-17T12:30:21;8.18;;;3.40;;
74375;SDS011;62812;55.188;61.302;2023-05-17T12:32:48;6.93;;;3.67;;
74375;SDS011;62812;55.188;61.302;2023-05-17T12:35:20;12.13;;;4.93;;
74375;SDS011;62812;55.188;61.302;2023-05-17T12:37:52;25.10;;;5.75;;
74375;SDS011;62812;55.188;61.302;2023-05-17T12:40:21;11.02;;;4.22;;
74375;SDS011;62812;55.188;61.302;2023-05-17T12:42:49;8.82;;;4.18;;
74375;SDS011;62812;55.188;61.302;2023-05-17T12:45:16;11.13;;;4.28;;
74375;SDS011;62812;55.188;61.302;2023-05-17T12:47:45;10.25;;;4.45;;
74375;SDS011;62812;55.188;61.302;2023-05-17T12:50:24;10.40;;;4.22;;
74375;SDS011;62812;55.188;61.302;2023-05-17T12:52:51;13.25;;;4.53;;
74375;SDS011;62812;55.188;61.302;2023-05-17T12:55:19;9.32;;;3.95;;
74375;SDS011;62812;55.188;61.302;2023-05-17T12:57:49;11.15;;;3.88;;
74375;SDS011;62812;55.188;61.302;2023-05-17T13:00:17;9.90;;;3.72;;
74375;SDS011;62812;55.188;61.302;2023-05-17T13:02:46;8.25;;;3.00;;
74375;SDS011;62812;55.188;61.302;2023-05-17T13:05:13;14.70;;;3.20;;
74375;SDS011;62812;55.188;61.302;2023-05-17T13:07:42;8.95;;;3.20;;
74375;SDS011;62812;55.188;61.302;2023-05-17T13:10:18;10.07;;;4.32;;
74375;SDS011;62812;55.188;61.302;2023-05-17T13:12:53;12.70;;;4.97;;
74375;SDS011;62812;55.188;61.302;2023-05-17T13:15:28;11.55;;;4.05;;
74375;SDS011;62812;55.188;61.302;2023-05-17T13:17:57;9.05;;;3.42;;
74375;SDS011;62812;55.188;61.302;2023-05-17T13:20:26;8.20;;;3.13;;
74375;SDS011;62812;55.188;61.302;2023-05-17T13:22:54;13.48;;;4.00;;
74375;SDS011;62812;55.188;61.302;2023-05-17T13:25:21;11.85;;;4.05;;
74375;SDS011;62812;55.188;61.302;2023-05-17T13:27:49;11.50;;;3.92;;
74375;SDS011;62812;55.188;61.302;2023-05-17T13:30:20;12.50;;;4.05;;
74375;SDS011;62812;55.188;61.302;2023-05-17T13:32:49;10.80;;;4.00;;
74375;SDS011;62812;55.188;61.302;2023-05-17T13:35:20;8.65;;;3.10;;
74375;SDS011;62812;55.188;61.302;2023-05-17T13:37:47;9.57;;;3.80;;
74375;SDS011;62812;55.188;61.302;2023-05-17T13:40:16;9.45;;;3.70;;
74375;SDS011;62812;55.188;61.302;2023-05-17T13:42:43;9.10;;;3.67;;
74375;SDS011;62812;55.188;61.302;2023-05-17T13:45:14;10.05;;;4.03;;
74375;SDS011;62812;55.188;61.302;2023-05-17T13:47:45;9.27;;;3.70;;
74375;SDS011;62812;55.188;61.302;2023-05-17T13:50:14;9.75;;;3.42;;
74375;SDS011;62812;55.188;61.302;2023-05-17T13:52:44;8.82;;;3.30;;
74375;SDS011;62812;55.188;61.302;2023-05-17T13:57:40;9.18;;;3.53;;
74375;SDS011;62812;55.188;61.302;2023-05-17T14:00:08;8.05;;;3.97;;
74375;SDS011;62812;55.188;61.302;2023-05-17T14:02:37;10.50;;;4.40;;
74375;SDS011;62812;55.188;61.302;2023-05-17T14:05:06;12.02;;;4.95;;
74375;SDS011;62812;55.188;61.302;2023-05-17T14:07:36;9.45;;;3.70;;
74375;SDS011;62812;55.188;61.302;2023-05-17T14:10:10;10.80;;;3.35;;
74375;SDS011;62812;55.188;61.302;2023-05-17T14:12:37;8.27;;;3.30;;
74375;SDS011;62812;55.188;61.302;2023-05-17T14:15:07;7.95;;;3.38;;
74375;SDS011;62812;55.188;61.302;2023-05-17T14:17:36;7.30;;;3.65;;
74375;SDS011;62812;55.188;61.302;2023-05-17T14:20:05;6.82;;;3.40;;
74375;SDS011;62812;55.188;61.302;2023-05-17T14:25:01;10.32;;;3.33;;
74375;SDS011;62812;55.188;61.302;2023-05-17T14:27:36;10.93;;;2.88;;
74375;SDS011;62812;55.188;61.302;2023-05-17T14:30:12;8.48;;;4.00;;
74375;SDS011;62812;55.188;61.302;2023-05-17T14:32:53;8.20;;;3.00;;
74375;SDS011;62812;55.188;61.302;2023-05-17T14:35:25;10.93;;;3.40;;
74375;SDS011;62812;55.188;61.302;2023-05-17T14:40:48;9.63;;;3.30;;
74375;SDS011;62812;55.188;61.302;2023-05-17T14:43:26;8.15;;;3.70;;
74375;SDS011;62812;55.188;61.302;2023-05-17T14:45:54;10.75;;;3.58;;
74375;SDS011;62812;55.188;61.302;2023-05-17T14:48:25;11.63;;;3.50;;
74375;SDS011;62812;55.188;61.302;2023-05-17T14:50:55;13.07;;;4.00;;
74375;SDS011;62812;55.188;61.302;2023-05-17T14:53:22;9.88;;;3.42;;
74375;SDS011;62812;55.188;61.302;2023-05-17T14:55:59;8.07;;;3.58;;
74375;SDS011;62812;55.188;61.302;2023-05-17T14:58:33;7.18;;;3.13;;
74375;SDS011;62812;55.188;61.302;2023-05-17T15:01:03;10.00;;;3.70;;
74375;SDS011;62812;55.188;61.302;2023-05-17T15:07:30;7.70;;;3.33;;
74375;SDS011;62812;55.188;61.302;2023-05-17T15:13:14;11.50;;;3.47;;
74375;SDS011;62812;55.188;61.302;2023-05-17T15:15:44;11.32;;;3.92;;
74375;SDS011;62812;55.188;61.302;2023-05-17T15:20:56;12.57;;;3.88;;
74375;SDS011;62812;55.188;61.302;2023-05-17T15:26:21;8.32;;;3.58;;
74375;SDS011;62812;55.188;61.302;2023-05-17T15:35:42;12.07;;;4.13;;
74375;SDS011;62812;55.188;61.302;2023-05-17T15:42:37;18.50;;;6.00;;
74375;SDS011;62812;55.188;61.302;2023-05-17T15:45:12;18.70;;;6.85;;
74375;SDS011;62812;55.188;61.302;2023-05-17T15:50:39;17.42;;;6.70;;
74375;SDS011;62812;55.188;61.302;2023-05-17T15:57:01;20.33;;;7.57;;
74375;SDS011;62812;55.188;61.302;2023-05-17T15:59:31;22.38;;;9.02;;
74375;SDS011;62812;55.188;61.302;2023-05-17T16:02:02;21.85;;;9.98;;
74375;SDS011;62812;55.188;61.302;2023-05-17T16:04:30;29.17;;;9.65;;
74375;SDS011;62812;55.188;61.302;2023-05-17T16:10:18;28.77;;;10.68;;
74375;SDS011;62812;55.188;61.302;2023-05-17T16:12:45;24.42;;;10.63;;